首页
METAR-TAF:

METAR-TAF

机场 :

瑟克特夫卡爾, 俄罗斯

纬度: 61-43N, 经度: 050-50E, 海拔: 119米

当前天气观测

该预报发布于19分钟前的13:30 UTC
风速6节,风向东转东北
温度 -8°C
湿度 92%
气压 1015 hPa
能見度: 7000
散云层高于3300英尺, 积雨云.
小阵雪

METAR: UUYY 191330Z 06003MPS 7000 -SHSN SCT033CB M08/M09 Q1015 R36/490933 NOSIG RMK QFE752/1003

时间: 16:49 (13:49 UTC)

预报

该预报发布于2小时和49分钟前的11:00 UTC
预报有效从19日的 12点(UTC)到 20日的 12点(UTC)
风速6节,风向东转东北,有时为16节阵风
能見度: 3100
多云层高于1100英尺
多云层高于1500英尺, 积雨云.
小阵雪, 轻雾
短暂存在
从 19日的 12点(UTC)到 19日的 18点(UTC)
能見度: 1000
少量云层高于700英尺
多云层高于1100英尺, 积雨云.
阵雪, 冻毛毛雨
从 19日的 1800点(UTC)
风速6节,风向,有时为16节阵风
能見度: 5000
多云层高于1100英尺
多云层高于1500英尺, 积雨云.
小阵雪, 轻雾
短暂存在
从 19日的 18点(UTC)到 20日的 12点(UTC)
能見度: 3100
少量云层高于700英尺
多云层高于1100英尺, 积雨云.
小阵雪, 轻雾

TAF: UUYY 191100Z 1912/2012 07003G08MPS 3100 -SHSN BR BKN011 BKN015CB TEMPO 1912/1918 1000 SHSN FZDZ FEW007 BKN011CB FM191800 09003G08MPS 5000 -SHSN BR BKN011 BKN015CB TEMPO 1918/2012 3100 -SHSN BR FEW007 BKN011CB

超过4000个机场的气象观测和天气预报(METAR&TAF报告)。

可查询的气象台以黄色和红色小点在地图上表示。

将鼠标移到小点上方,可查看气象台名称。

然后点击查看天气观测和预报。

如需切换地图:点击带黑十字的绿色按钮放大地图;点击带横线的绿色按钮缩小地图;或者点击绿色箭头查看邻近地区的地图。


METAR-TAF: